createdAt,value
2022-10-19T06:22:52.930Z,7.90
2022-10-19T06:25:20.455Z,9.10
2022-10-19T06:27:47.685Z,9.50
2022-10-19T06:30:14.652Z,11.10
2022-10-19T06:32:41.395Z,14.70
2022-10-19T06:35:08.398Z,16.60
2022-10-19T06:37:35.495Z,17.00
2022-10-19T06:40:06.742Z,17.90
2022-10-19T06:42:34.020Z,15.40
2022-10-19T06:45:00.785Z,14.40
2022-10-19T06:47:31.529Z,14.30
2022-10-19T06:49:58.343Z,14.00
2022-10-19T06:52:25.031Z,12.70
2022-10-19T06:54:51.778Z,13.20
2022-10-19T06:57:18.555Z,11.80
2022-10-19T06:59:46.541Z,9.40
2022-10-19T07:02:14.847Z,9.00
2022-10-19T07:04:41.546Z,8.90
2022-10-19T07:07:08.304Z,9.30
2022-10-19T07:09:35.235Z,10.00
2022-10-19T07:12:01.939Z,10.10
2022-10-19T07:14:28.750Z,10.40
2022-10-19T07:16:55.807Z,11.00
2022-10-19T07:19:25.743Z,11.60
2022-10-19T07:21:53.239Z,11.40
2022-10-19T07:24:20.177Z,9.30
2022-10-19T07:26:46.933Z,8.60
2022-10-19T07:29:13.724Z,9.10
2022-10-19T07:39:13.463Z,9.90
2022-10-19T07:41:40.733Z,9.80
2022-10-19T07:44:08.951Z,10.30
2022-10-19T07:46:38.897Z,10.20
2022-10-19T07:49:10.278Z,10.90
2022-10-19T07:51:38.791Z,12.30
2022-10-19T07:54:06.231Z,12.90
2022-10-19T07:56:33.118Z,13.60
2022-10-19T07:59:01.099Z,14.50
2022-10-19T08:01:30.571Z,14.90
2022-10-19T08:04:55.539Z,13.40
2022-10-19T08:06:45.617Z,13.10
2022-10-19T08:09:27.658Z,11.90
2022-10-19T08:11:59.212Z,11.10
2022-10-19T08:14:26.471Z,10.40
2022-10-19T08:17:26.673Z,10.30
2022-10-19T08:19:53.428Z,10.10
2022-10-19T08:22:20.141Z,11.20
2022-10-19T08:24:46.939Z,11.00
2022-10-19T08:27:14.997Z,10.70
2022-10-19T08:29:41.750Z,11.10
2022-10-19T08:32:08.607Z,10.70
2022-10-19T08:34:35.308Z,10.60
2022-10-19T08:37:10.331Z,10.80
2022-10-19T08:39:46.975Z,10.80
2022-10-19T08:42:19.510Z,10.20
2022-10-19T08:45:23.682Z,10.20
2022-10-19T08:48:03.539Z,9.50
2022-10-19T08:50:42.806Z,10.50
2022-10-19T08:53:17.057Z,10.40
2022-10-19T08:55:57.776Z,9.20
2022-10-19T08:58:40.650Z,9.90
2022-10-19T09:01:16.749Z,10.30
2022-10-19T09:03:56.488Z,9.80
2022-10-19T09:06:32.606Z,9.50
2022-10-19T09:08:59.842Z,9.70
2022-10-19T09:11:39.048Z,8.70
2022-10-19T09:14:27.988Z,8.40
2022-10-19T09:17:00.304Z,8.20
2022-10-19T09:19:31.112Z,8.60
2022-10-19T09:22:16.464Z,8.30
2022-10-19T09:24:54.896Z,8.10
2022-10-19T09:27:21.649Z,8.40
2022-10-19T09:29:55.195Z,7.80
2022-10-19T09:32:28.358Z,6.90
2022-10-19T09:34:58.966Z,7.70
2022-10-19T09:37:26.928Z,7.60
2022-10-19T09:39:55.760Z,7.50
2022-10-19T09:42:34.134Z,7.80
2022-10-19T09:45:12.217Z,7.60
2022-10-19T09:47:42.704Z,7.80
2022-10-19T09:50:27.537Z,7.70
2022-10-19T09:53:05.143Z,8.10
2022-10-19T09:55:45.757Z,8.00
2022-10-19T09:58:15.484Z,7.90
2022-10-19T10:00:56.215Z,8.80
2022-10-19T10:03:27.959Z,9.20
2022-10-19T10:05:57.650Z,8.10
2022-10-19T10:08:27.637Z,8.30
2022-10-19T10:10:58.112Z,7.50
2022-10-19T10:13:27.728Z,8.00
2022-10-19T10:16:04.112Z,7.80
2022-10-19T10:18:30.861Z,8.00
2022-10-19T10:21:06.010Z,8.40
2022-10-19T10:23:36.544Z,7.50
2022-10-19T10:26:05.994Z,7.60
2022-10-19T10:28:32.787Z,7.90
2022-10-19T10:31:06.638Z,7.70
2022-10-19T10:36:27.048Z,8.20
2022-10-19T10:41:39.782Z,7.30
2022-10-19T10:44:22.349Z,6.60
2022-10-19T10:47:04.510Z,6.80
2022-10-19T10:49:38.162Z,5.50
2022-10-19T10:52:25.870Z,5.30
2022-10-19T10:54:58.820Z,6.00
2022-10-19T10:57:42.062Z,6.50
2022-10-19T11:00:21.003Z,6.70
2022-10-19T11:03:26.769Z,6.50
2022-10-19T11:05:59.012Z,6.20
2022-10-19T11:08:36.136Z,5.00
2022-10-19T11:11:17.339Z,6.10
2022-10-19T11:13:53.010Z,6.80
2022-10-19T11:16:24.591Z,6.60
2022-10-19T11:19:00.877Z,6.70
2022-10-19T11:21:48.791Z,6.30
2022-10-19T11:24:27.943Z,6.90
2022-10-19T11:27:06.914Z,6.70
2022-10-19T11:30:03.374Z,6.10
2022-10-19T11:33:02.258Z,6.50
2022-10-19T11:35:58.283Z,5.70
2022-10-19T11:38:50.266Z,5.70
2022-10-19T11:41:32.956Z,5.80
2022-10-19T11:44:13.041Z,5.60
2022-10-19T11:46:54.681Z,5.70
2022-10-19T11:49:59.248Z,5.50
2022-10-19T11:52:46.653Z,5.80
2022-10-19T11:55:39.474Z,5.80
2022-10-19T11:58:17.700Z,6.30
2022-10-19T12:01:13.200Z,6.70
2022-10-19T12:03:43.099Z,6.30
2022-10-19T12:06:22.111Z,6.40
2022-10-19T12:08:58.234Z,6.90
2022-10-19T12:11:39.068Z,7.20
2022-10-19T12:14:23.846Z,6.80
2022-10-19T12:16:54.661Z,7.00
2022-10-19T12:19:39.491Z,7.50
2022-10-19T12:22:13.749Z,8.20
2022-10-19T12:24:40.483Z,7.30
2022-10-19T12:27:10.947Z,7.20
2022-10-19T12:29:42.257Z,7.20
2022-10-19T12:32:15.351Z,6.80
2022-10-19T12:34:42.042Z,7.40
2022-10-19T12:37:44.377Z,7.00
2022-10-19T12:40:25.841Z,6.60
2022-10-19T12:43:11.583Z,6.80
2022-10-19T12:45:48.219Z,7.10
2022-10-19T12:48:20.230Z,6.80
2022-10-19T12:50:49.990Z,6.70
2022-10-19T12:53:31.459Z,6.50
2022-10-19T12:56:08.491Z,6.60
2022-10-19T12:58:35.103Z,6.70
2022-10-19T13:01:04.778Z,6.20
2022-10-19T13:03:35.692Z,6.60
2022-10-19T13:06:09.125Z,7.60
2022-10-19T13:09:01.362Z,6.30
2022-10-19T13:11:28.459Z,6.90
2022-10-19T13:14:03.426Z,6.80
2022-10-19T13:16:30.205Z,8.10
2022-10-19T13:18:59.780Z,5.90
2022-10-19T13:21:51.233Z,6.60
2022-10-19T13:24:26.789Z,6.00
2022-10-19T13:27:02.700Z,7.40
2022-10-19T13:29:39.237Z,7.80
2022-10-19T13:32:32.201Z,6.60
2022-10-19T13:35:25.814Z,7.10
2022-10-19T13:38:18.356Z,7.50
2022-10-19T13:40:48.066Z,8.20
2022-10-19T13:44:16.390Z,7.20
2022-10-19T13:51:16.216Z,6.90
2022-10-19T13:54:28.514Z,7.40
2022-10-19T13:57:29.356Z,7.80
2022-10-19T14:00:18.177Z,7.50
2022-10-19T14:02:48.188Z,7.30
2022-10-19T14:08:44.010Z,7.90
2022-10-19T14:11:36.630Z,7.50
2022-10-19T14:14:09.745Z,6.80
2022-10-19T14:16:51.350Z,7.10
2022-10-19T14:19:27.347Z,7.10
2022-10-19T14:21:56.449Z,7.50
2022-10-19T14:24:37.120Z,7.90
2022-10-19T14:27:06.431Z,7.50
2022-10-19T14:29:57.579Z,7.70
2022-10-19T14:32:29.813Z,7.80
2022-10-19T14:37:37.027Z,7.80
2022-10-19T14:40:26.633Z,8.10
2022-10-19T14:42:57.004Z,8.90
2022-10-19T14:45:30.092Z,9.20
2022-10-19T14:48:17.267Z,9.60
2022-10-19T14:50:52.134Z,9.40
2022-10-19T14:53:33.897Z,9.10
2022-10-19T14:56:12.903Z,8.90
2022-10-19T14:58:50.906Z,9.30
2022-10-19T15:01:20.220Z,9.30
2022-10-19T15:03:49.918Z,10.20
2022-10-19T15:06:24.641Z,10.60
2022-10-19T15:09:04.937Z,11.00
2022-10-19T15:11:38.183Z,10.50
2022-10-19T15:14:14.459Z,11.20
2022-10-19T15:16:47.285Z,12.90
2022-10-19T15:19:40.131Z,13.60
2022-10-19T15:22:31.431Z,14.60
2022-10-19T15:25:07.217Z,13.70
2022-10-19T15:27:35.439Z,12.20
2022-10-19T15:30:27.908Z,11.40
2022-10-19T15:33:00.848Z,10.20
2022-10-19T15:35:29.567Z,9.30
2022-10-19T15:38:23.293Z,9.20
2022-10-19T15:40:57.934Z,8.30
2022-10-19T15:43:30.868Z,9.60
2022-10-19T15:46:00.582Z,8.90
2022-10-19T15:48:44.580Z,9.30
2022-10-19T15:51:23.583Z,8.80
2022-10-19T15:57:41.974Z,11.40
2022-10-19T16:00:14.894Z,10.00
2022-10-19T16:02:41.706Z,9.90
2022-10-19T16:05:12.030Z,10.40
2022-10-19T16:07:57.036Z,10.00
2022-10-19T16:10:36.250Z,10.30
2022-10-19T16:13:28.202Z,10.50
2022-10-19T16:20:42.235Z,12.20
2022-10-19T16:23:10.703Z,12.70
2022-10-19T16:25:40.626Z,13.20
2022-10-19T16:28:07.372Z,13.70
2022-10-19T16:30:34.378Z,13.70
2022-10-19T16:33:01.608Z,14.80
2022-10-19T16:35:28.655Z,14.30
2022-10-19T16:37:55.311Z,16.30
2022-10-19T16:40:22.372Z,19.30
2022-10-19T16:42:49.644Z,21.40
2022-10-19T16:45:16.651Z,23.00
2022-10-19T16:47:43.364Z,21.10
2022-10-19T16:50:11.416Z,20.00
2022-10-19T16:52:38.846Z,16.10
2022-10-19T16:55:06.240Z,18.80
2022-10-19T16:57:33.054Z,17.70
2022-10-19T16:59:59.779Z,17.90
2022-10-19T17:02:26.700Z,19.20
2022-10-19T17:04:53.456Z,19.50
2022-10-19T17:07:20.680Z,19.50
2022-10-19T17:09:52.164Z,21.60
2022-10-19T17:12:20.704Z,22.30
2022-10-19T17:14:48.211Z,22.50
2022-10-19T17:17:18.102Z,21.40
2022-10-19T17:19:45.142Z,20.60
2022-10-19T17:22:12.436Z,20.90
2022-10-19T17:24:39.747Z,23.70
2022-10-19T17:27:07.831Z,25.80
2022-10-19T17:29:35.246Z,27.70
2022-10-19T17:32:02.561Z,27.70
2022-10-19T17:34:29.720Z,26.20
2022-10-19T17:36:57.005Z,25.40
2022-10-19T17:39:29.141Z,24.20
2022-10-19T17:42:02.274Z,23.20
2022-10-19T17:44:31.368Z,24.90
2022-10-19T17:47:00.345Z,24.20
2022-10-19T17:49:27.765Z,25.30
2022-10-19T17:51:54.947Z,27.00
2022-10-19T17:54:22.144Z,30.60
2022-10-19T17:56:49.569Z,30.20
2022-10-19T17:59:16.788Z,26.00
2022-10-19T18:01:44.077Z,22.80
2022-10-19T18:04:11.389Z,22.60
2022-10-19T18:06:39.174Z,28.00
2022-10-19T18:09:09.659Z,24.50
2022-10-19T18:11:43.056Z,20.00
2022-10-19T18:14:12.079Z,25.10
2022-10-19T18:16:47.288Z,22.60
2022-10-19T18:19:21.779Z,21.90
2022-10-19T18:21:49.822Z,21.20
2022-10-19T18:24:20.662Z,17.80
2022-10-19T18:26:50.268Z,17.80
2022-10-19T18:29:21.596Z,17.80
2022-10-19T18:31:52.136Z,17.60
2022-10-19T18:34:23.495Z,16.60
2022-10-19T18:36:51.667Z,16.20
2022-10-19T18:39:20.224Z,17.60
2022-10-19T18:41:52.378Z,18.10
2022-10-19T18:44:25.237Z,17.40
2022-10-19T18:46:54.953Z,17.80
2022-10-19T18:49:22.371Z,19.20
2022-10-19T18:51:54.287Z,20.80
2022-10-19T18:54:23.612Z,20.10
2022-10-19T18:56:50.788Z,17.60
2022-10-19T18:59:19.341Z,17.30
2022-10-19T19:01:46.735Z,18.30
2022-10-19T19:04:14.310Z,18.00
2022-10-19T19:06:45.599Z,27.40
2022-10-19T19:09:14.057Z,50.40
2022-10-19T19:11:41.763Z,56.30
2022-10-19T19:14:13.913Z,61.40
2022-10-19T19:16:42.619Z,59.20
2022-10-19T19:19:13.306Z,63.10
2022-10-19T19:21:44.788Z,60.90
2022-10-19T19:24:15.409Z,59.30
2022-10-19T19:26:44.718Z,49.30
2022-10-19T19:29:12.346Z,48.70
2022-10-19T19:31:40.117Z,46.10
2022-10-19T19:34:10.055Z,44.10
2022-10-19T19:39:06.978Z,28.90
2022-10-19T19:41:34.876Z,30.70
2022-10-19T19:44:02.201Z,36.10
2022-10-19T19:46:29.536Z,36.10
2022-10-19T19:49:01.569Z,39.30
2022-10-19T19:51:30.340Z,27.80
2022-10-19T19:53:58.051Z,22.60
2022-10-19T19:56:25.529Z,20.10
2022-10-19T19:58:57.972Z,19.60
2022-10-19T20:01:25.863Z,19.00
2022-10-19T20:03:54.535Z,16.90
2022-10-19T20:06:25.088Z,17.20
2022-10-19T20:08:53.454Z,17.10
2022-10-19T20:11:20.665Z,17.20
2022-10-19T20:13:48.291Z,16.10
2022-10-19T20:16:23.806Z,17.80
2022-10-19T20:19:01.977Z,18.20
2022-10-19T20:21:29.561Z,18.00
2022-10-19T20:23:56.685Z,16.90
2022-10-19T20:26:25.275Z,18.10
2022-10-19T20:28:53.373Z,18.70
2022-10-19T20:31:21.328Z,18.50
2022-10-19T20:33:49.136Z,15.40
2022-10-19T20:36:21.773Z,15.30
2022-10-19T20:38:51.591Z,15.00
2022-10-19T20:41:20.286Z,14.30
2022-10-19T20:43:47.594Z,13.80
2022-10-19T20:46:18.088Z,15.20
2022-10-19T20:48:46.554Z,14.10
2022-10-19T20:51:19.470Z,11.60
2022-10-19T20:53:48.765Z,11.70
2022-10-19T20:56:18.812Z,11.20
2022-10-19T20:58:45.823Z,11.10
2022-10-19T21:02:05.385Z,13.20
2022-10-19T21:04:32.138Z,13.40
2022-10-19T21:07:00.119Z,11.80
2022-10-19T21:09:26.836Z,11.80
2022-10-19T21:11:53.754Z,10.90
2022-10-19T21:14:26.937Z,11.00
2022-10-19T21:16:57.816Z,10.50
2022-10-19T21:19:26.812Z,10.30
2022-10-19T21:21:56.583Z,10.00
2022-10-19T21:24:34.715Z,9.50
2022-10-19T21:27:04.019Z,10.10
2022-10-19T21:29:31.086Z,9.70
2022-10-19T21:31:57.845Z,9.70
2022-10-19T21:34:27.517Z,9.40
2022-10-19T21:36:55.396Z,9.90
2022-10-19T21:39:22.596Z,9.30
2022-10-19T21:41:50.080Z,8.40
2022-10-19T21:44:18.024Z,8.10
2022-10-19T21:46:47.796Z,9.20
2022-10-19T21:49:15.197Z,9.20
2022-10-19T21:51:41.812Z,9.30
2022-10-19T21:54:12.837Z,9.80
2022-10-19T21:56:39.768Z,9.60
2022-10-19T21:59:06.635Z,8.80
2022-10-19T22:01:38.572Z,9.80
2022-10-19T22:04:12.299Z,10.30
2022-10-19T22:06:39.727Z,11.10
2022-10-19T22:09:08.375Z,11.70
2022-10-19T22:11:35.139Z,11.90
2022-10-19T22:14:04.132Z,11.90
2022-10-19T22:16:32.533Z,11.80
2022-10-19T22:18:59.436Z,11.30
2022-10-19T22:21:29.391Z,10.80
2022-10-19T22:23:59.059Z,10.60
2022-10-19T22:26:29.041Z,10.50
2022-10-19T22:28:57.902Z,9.40
2022-10-19T22:31:26.068Z,9.20
2022-10-19T22:33:53.054Z,10.20
2022-10-19T22:36:20.190Z,11.00
2022-10-19T22:38:46.914Z,10.70
2022-10-19T22:42:10.591Z,10.60
2022-10-19T22:44:37.333Z,12.20
2022-10-19T22:47:04.085Z,11.70
2022-10-19T22:49:30.884Z,12.10
2022-10-19T22:51:57.644Z,12.20
2022-10-19T22:54:24.362Z,12.00
2022-10-19T22:56:51.161Z,12.20
2022-10-19T22:59:17.872Z,12.40
2022-10-19T23:01:44.749Z,11.90
2022-10-19T23:04:11.631Z,12.90
2022-10-19T23:06:38.408Z,13.40
2022-10-19T23:09:05.220Z,13.40
2022-10-19T23:11:32.150Z,13.50
2022-10-19T23:13:58.831Z,12.70
2022-10-19T23:16:25.615Z,12.00
2022-10-19T23:18:52.457Z,10.00
2022-10-19T23:21:19.239Z,11.60
2022-10-19T23:23:46.109Z,11.50
2022-10-19T23:26:19.787Z,11.70
2022-10-19T23:28:49.056Z,11.30
2022-10-19T23:31:23.648Z,10.60
2022-10-19T23:33:50.874Z,10.20
2022-10-19T23:36:20.572Z,10.20
2022-10-19T23:38:49.209Z,10.20
2022-10-19T23:41:17.963Z,9.50
2022-10-19T23:43:44.737Z,9.00
2022-10-19T23:46:12.068Z,8.80
2022-10-19T23:48:38.913Z,9.30
2022-10-19T23:51:11.581Z,9.40
2022-10-19T23:53:41.270Z,9.40
2022-10-19T23:56:29.148Z,8.40
2022-10-19T23:58:56.946Z,8.30
